»·PEaware :: N32314 KSBA-KAVX

N32314 :: KSBA-KAVX

FLIGHT INFORMATION

Flight Status: Arrived
Operator: Privately registered:
United States
More flights under this callsign
Pilot: John O. (31453)
Aircraft: CESSNA 172 SKYHAWK
(C172)
More flights by this aircraft type
Origin: KSBA Santa Barbara Mun
United States
Destination: KAVX Catalina
United States
More flights between these airports :: More routes between these airports
Route: COASTAL ROUTE SOUTHBOUND
File this flight plan on PilotEdge
Remarks:
Altitude:
(Current/Filed)
6,500ft
Speed:
(Current/Filed)
0kts
Departed: 02-Feb-21 12:04 PM
Arrived: 02-Feb-21 01:18 PM
Distance/Time
Traveled:
94nm/1:14
Distance/Time
To Go:
Arrived

Flight Plot

Page will automatically refresh every two minutes.

Flight plan parsing failed; only flown route is shown


Map Options




Map Legend


Flown Route
Filed Route
Departure Airport
Arrival Airport
Navaid (VOR, NDB)
Fix

Horizontal Profiles

Position Reports

Time Latitude Longitude Heading Altitude Ground
Speed
02-Feb-21 11:54 34.423179 -119.836197 228 15ft 0kts
02-Feb-21 11:55 34.423179 -119.836197 228 15ft 0kts
02-Feb-21 11:56 34.423179 -119.836197 228 15ft 0kts
02-Feb-21 11:57 34.422996 -119.836474 234 15ft 7kts
02-Feb-21 11:58 34.424967 -119.837834 345 18ft 16kts
02-Feb-21 11:59 34.426783 -119.834973 82 16ft 13kts
02-Feb-21 12:00 34.427104 -119.834607 357 16ft 0kts
02-Feb-21 12:01 34.427104 -119.834607 357 16ft 0kts
02-Feb-21 12:02 34.427138 -119.834609 357 16ft 4kts
02-Feb-21 12:03 34.427656 -119.850315 267 220ft 88kts
02-Feb-21 12:04 34.425328 -119.882138 263 829ft 104kts
02-Feb-21 12:05 34.411427 -119.902143 131 1440ft 104kts
02-Feb-21 12:06 34.409200 -119.869700 97 2190ft 101kts
02-Feb-21 12:07 34.407473 -119.835167 92 2791ft 104kts
02-Feb-21 12:08 34.406030 -119.799988 93 3384ft 105kts
02-Feb-21 12:09 34.404554 -119.764633 93 3985ft 104kts
02-Feb-21 12:10 34.403091 -119.729706 93 4586ft 103kts
02-Feb-21 12:11 34.401651 -119.695446 93 5172ft 102kts
02-Feb-21 12:12 34.400025 -119.657165 93 5306ft 120kts
02-Feb-21 12:13 34.398745 -119.618119 89 5313ft 115kts
02-Feb-21 12:14 34.399707 -119.579376 88 5313ft 115kts
02-Feb-21 12:15 34.395417 -119.540983 98 5315ft 115kts
02-Feb-21 12:16 34.392705 -119.502524 93 5316ft 115kts
02-Feb-21 12:17 34.390367 -119.463781 94 5314ft 115kts
02-Feb-21 12:18 34.388131 -119.425200 94 5314ft 116kts
02-Feb-21 12:19 34.385911 -119.386778 94 5313ft 116kts
02-Feb-21 12:20 34.383700 -119.348429 93 5339ft 114kts
02-Feb-21 12:21 34.381465 -119.309896 94 5341ft 115kts
02-Feb-21 12:22 34.379227 -119.271063 94 5342ft 116kts
02-Feb-21 12:23 34.377006 -119.232414 94 5342ft 116kts
02-Feb-21 12:24 34.374762 -119.193811 94 5340ft 115kts
02-Feb-21 12:25 34.372527 -119.155204 94 5342ft 116kts
02-Feb-21 12:26 34.370283 -119.116399 94 5342ft 115kts
02-Feb-21 12:27 34.368068 -119.077980 94 5342ft 115kts
02-Feb-21 12:28 34.365838 -119.039341 94 5342ft 115kts
02-Feb-21 12:29 34.363604 -119.000761 94 5343ft 115kts
02-Feb-21 12:30 34.361377 -118.962325 94 5363ft 114kts
02-Feb-21 12:31 34.359154 -118.923879 94 5370ft 115kts
02-Feb-21 12:32 34.357875 -118.885260 95 5371ft 116kts
02-Feb-21 12:33 34.340762 -118.855867 124 5370ft 115kts
02-Feb-21 12:34 34.321725 -118.825243 127 5373ft 115kts
02-Feb-21 12:35 34.302744 -118.794138 127 5370ft 115kts
02-Feb-21 12:36 34.283802 -118.762998 127 5371ft 115kts
02-Feb-21 12:37 34.266567 -118.730627 122 5370ft 115kts
02-Feb-21 12:38 34.251368 -118.696860 111 5370ft 115kts
02-Feb-21 12:39 34.240438 -118.660585 110 5370ft 116kts
02-Feb-21 12:40 34.229750 -118.624205 109 5369ft 115kts
02-Feb-21 12:41 34.219100 -118.587863 109 5372ft 115kts
02-Feb-21 12:42 34.200608 -118.559979 161 5371ft 114kts
02-Feb-21 12:43 34.170707 -118.547511 161 5344ft 115kts
02-Feb-21 12:44 34.143160 -118.534098 157 5343ft 114kts
02-Feb-21 12:45 34.115319 -118.520774 158 5344ft 114kts
02-Feb-21 12:46 34.085792 -118.506362 159 5338ft 115kts
02-Feb-21 12:47 34.056666 -118.492146 159 5344ft 114kts
02-Feb-21 12:48 34.027527 -118.477954 159 5343ft 114kts
02-Feb-21 12:49 33.998265 -118.463691 159 5342ft 114kts
02-Feb-21 12:50 33.969022 -118.449409 158 5342ft 114kts
02-Feb-21 12:51 33.939630 -118.434960 158 5343ft 114kts
02-Feb-21 12:52 33.915650 -118.411948 138 5343ft 114kts
02-Feb-21 12:53 33.892014 -118.387461 137 5343ft 115kts
02-Feb-21 12:54 33.868305 -118.361739 138 5343ft 115kts
02-Feb-21 12:55 33.844494 -118.336066 138 5343ft 115kts
02-Feb-21 12:56 33.820772 -118.310419 138 5343ft 115kts
02-Feb-21 12:57 33.797628 -118.285415 138 5342ft 115kts
02-Feb-21 12:58 33.774038 -118.259932 138 5342ft 115kts
02-Feb-21 12:59 33.750448 -118.234400 138 5343ft 115kts
02-Feb-21 13:00 33.724933 -118.246844 215 5102ft 124kts
02-Feb-21 13:01 33.693527 -118.265588 202 4599ft 127kts
02-Feb-21 13:02 33.661981 -118.280875 203 4357ft 118kts
02-Feb-21 13:03 33.632658 -118.295113 203 4344ft 113kts
02-Feb-21 13:04 33.603041 -118.309512 203 4158ft 124kts
02-Feb-21 13:05 33.570295 -118.325394 203 3562ft 128kts
02-Feb-21 13:06 33.541208 -118.339514 202 2961ft 117kts
02-Feb-21 13:07 33.513504 -118.352922 203 2933ft 93kts
02-Feb-21 13:08 33.489536 -118.364551 202 3040ft 97kts
02-Feb-21 13:10 33.463023 -118.373184 194 3043ft 100kts
02-Feb-21 13:11 33.435933 -118.380992 194 3042ft 101kts
02-Feb-21 13:12 33.409227 -118.389791 198 3037ft 96kts
02-Feb-21 13:13 33.395839 -118.406370 302 3112ft 85kts
02-Feb-21 13:14 33.412406 -118.428368 336 2693ft 91kts
02-Feb-21 13:15 33.432760 -118.417606 45 2306ft 77kts
02-Feb-21 13:16 33.429547 -118.395342 132 2211ft 68kts
02-Feb-21 13:17 33.413375 -118.401656 229 1929ft 71kts
02-Feb-21 13:18 33.405253 -118.415231 191 1572ft 7kts
02-Feb-21 13:19 33.403516 -118.415292 252 1585ft 0kts
02-Feb-21 13:20 33.403516 -118.415292 252 1585ft 0kts
02-Feb-21 13:21 33.403516 -118.415292 252 1585ft 0kts
02-Feb-21 13:22 33.403517 -118.415292 252 1585ft 0kts
02-Feb-21 13:23 33.403516 -118.415292 252 1585ft 0kts
02-Feb-21 13:24 33.403516 -118.415292 252 1585ft 0kts
02-Feb-21 13:24 33.403516 -118.415292 252 1585ft 0kts
02-Feb-21 13:26 33.403516 -118.415292 252 1585ft 0kts
02-Feb-21 13:26 33.403516 -118.415292 252 1585ft 0kts
02-Feb-21 13:28 33.403516 -118.415292 252 1585ft 0kts
02-Feb-21 13:28 33.403516 -118.415292 252 1585ft 0kts
02-Feb-21 13:29 33.403516 -118.415292 252 1585ft 0kts
02-Feb-21 13:31 33.403516 -118.415292 252 1585ft 0kts
02-Feb-21 13:31 33.403516 -118.415292 252 1585ft 0kts

Navigation Log

Ident Type
Flight plan parsing failed, navigation log unavailable